createdAt,value
2017-10-18T00:01:40.705Z,101272.25
2017-10-18T00:03:43.148Z,101269.97
2017-10-18T00:05:45.684Z,101267.35
2017-10-18T00:07:48.157Z,101266.84
2017-10-18T00:09:50.611Z,101266.84
2017-10-18T00:11:53.053Z,101265.06
2017-10-18T00:13:55.521Z,101269.12
2017-10-18T00:15:57.975Z,101266.93
2017-10-18T00:18:00.428Z,101267.86
2017-10-18T00:20:02.889Z,101273.70
2017-10-18T00:22:05.440Z,101273.70
2017-10-18T00:24:07.982Z,101270.57
2017-10-18T00:26:10.443Z,101271.50
2017-10-18T00:28:12.955Z,101271.50
2017-10-18T00:30:15.396Z,101268.80
2017-10-18T00:32:17.861Z,101274.63
2017-10-18T00:34:20.304Z,101267.44
2017-10-18T00:36:22.748Z,101266.09
2017-10-18T00:38:25.215Z,101263.38
2017-10-18T00:40:27.674Z,101268.41
2017-10-18T00:42:30.119Z,101267.05
2017-10-18T00:44:32.575Z,101265.28
2017-10-18T00:46:35.029Z,101264.73
2017-10-18T00:48:37.474Z,101262.57
2017-10-18T00:50:39.941Z,101262.57
2017-10-18T00:52:42.372Z,101257.66
2017-10-18T00:54:44.812Z,101259.02
2017-10-18T00:56:47.297Z,101253.61
2017-10-18T00:58:49.734Z,101252.25
2017-10-18T01:00:52.184Z,101249.63
2017-10-18T01:02:54.756Z,101242.78
2017-10-18T01:04:57.193Z,101243.71
2017-10-18T01:06:59.701Z,101242.02
2017-10-18T01:09:02.170Z,101238.30
2017-10-18T01:11:04.614Z,101234.33
2017-10-18T01:13:07.057Z,101241.00
2017-10-18T01:15:09.514Z,101233.91
2017-10-18T01:17:11.949Z,101232.55
2017-10-18T01:19:14.388Z,101228.48
2017-10-18T01:21:16.854Z,101223.08
2017-10-18T01:23:19.304Z,101225.27
2017-10-18T01:25:21.772Z,101214.11
2017-10-18T01:27:24.230Z,101215.38
2017-10-18T01:29:26.671Z,101209.55
2017-10-18T01:31:29.139Z,101207.34
2017-10-18T01:33:31.716Z,101206.84
2017-10-18T01:35:34.149Z,101201.52
2017-10-18T01:37:36.596Z,101200.16
2017-10-18T01:39:39.060Z,101198.80
2017-10-18T01:41:41.580Z,101193.94
2017-10-18T01:43:44.016Z,101197.03
2017-10-18T01:45:46.528Z,101193.94
2017-10-18T01:47:48.974Z,101192.58
2017-10-18T01:49:51.458Z,101184.04
2017-10-18T01:51:53.921Z,101187.26
2017-10-18T01:53:56.367Z,101188.52
2017-10-18T01:55:58.805Z,101183.62
2017-10-18T01:58:01.273Z,101188.10
2017-10-18T02:00:03.813Z,101179.23
2017-10-18T02:02:06.253Z,101182.36
2017-10-18T02:04:08.739Z,101182.45
2017-10-18T02:06:11.220Z,101180.16
2017-10-18T02:08:13.695Z,101186.50
2017-10-18T02:10:16.199Z,101184.22
2017-10-18T02:12:18.635Z,101180.67
2017-10-18T02:14:21.125Z,101179.41
2017-10-18T02:16:23.670Z,101178.47
2017-10-18T02:18:26.120Z,101180.76
2017-10-18T02:20:28.567Z,101179.02
2017-10-18T02:22:31.030Z,101180.37
2017-10-18T02:24:33.548Z,101180.45
2017-10-18T02:26:36.228Z,101180.45
2017-10-18T02:28:38.795Z,101174.62
2017-10-18T02:30:41.273Z,101170.56
2017-10-18T02:32:43.755Z,101171.50
2017-10-18T02:34:46.221Z,101164.73
2017-10-18T02:36:48.665Z,101169.72
2017-10-18T02:38:51.106Z,101167.86
2017-10-18T02:40:53.580Z,101161.60
2017-10-18T02:42:56.030Z,101161.18
2017-10-18T02:44:58.555Z,101158.89
2017-10-18T02:47:01.031Z,101155.86
2017-10-18T02:49:03.470Z,101159.91
2017-10-18T02:51:05.911Z,101159.49
2017-10-18T02:53:08.389Z,101153.27
2017-10-18T02:55:10.841Z,101157.33
2017-10-18T02:57:13.299Z,101160.55
2017-10-18T02:59:15.750Z,101156.06
2017-10-18T03:01:18.186Z,101158.77
2017-10-18T03:03:20.619Z,101153.88
2017-10-18T03:05:23.095Z,101153.88
2017-10-18T03:07:25.635Z,101153.03
2017-10-18T03:09:28.132Z,101153.88
2017-10-18T03:11:30.593Z,101149.91
2017-10-18T03:13:33.032Z,101145.42
2017-10-18T03:15:35.513Z,101143.55
2017-10-18T03:17:37.972Z,101139.59
2017-10-18T03:19:40.428Z,101138.23
2017-10-18T03:21:42.912Z,101139.59
2017-10-18T03:23:45.388Z,101141.36
2017-10-18T03:25:47.822Z,101141.45
2017-10-18T03:27:50.512Z,101139.28
2017-10-18T03:29:53.006Z,101145.21
2017-10-18T03:31:55.445Z,101139.89
2017-10-18T03:33:57.953Z,101146.66
2017-10-18T03:36:00.427Z,101141.66
2017-10-18T03:38:02.894Z,101144.37
2017-10-18T03:40:05.337Z,101148.00
2017-10-18T03:42:07.811Z,101145.81
2017-10-18T03:44:10.272Z,101145.48
2017-10-18T03:46:12.709Z,101144.66
2017-10-18T03:48:15.245Z,101141.03
2017-10-18T03:50:17.684Z,101134.77
2017-10-18T03:52:20.180Z,101129.66
2017-10-18T03:54:22.636Z,101129.78
2017-10-18T03:58:26.800Z,101129.66
2017-10-18T04:00:29.268Z,101123.11
2017-10-18T04:02:31.706Z,101120.83
2017-10-18T04:04:34.141Z,101120.31
2017-10-18T04:06:36.605Z,101115.50
2017-10-18T04:08:39.124Z,101113.30
2017-10-18T04:10:41.596Z,101113.22
2017-10-18T04:12:44.076Z,101110.09
2017-10-18T04:14:46.509Z,101103.92
2017-10-18T04:16:48.953Z,101106.63
2017-10-18T04:18:51.420Z,101112.05
2017-10-18T04:20:53.882Z,101105.70
2017-10-18T04:22:56.317Z,101105.28
2017-10-18T04:24:58.789Z,101100.80
2017-10-18T04:27:01.254Z,101092.68
2017-10-18T04:29:03.882Z,101095.92
2017-10-18T04:31:06.516Z,101091.45
2017-10-18T04:33:08.949Z,101087.91
2017-10-18T04:35:11.405Z,101082.48
2017-10-18T04:37:13.917Z,101086.12
2017-10-18T04:39:16.364Z,101081.23
2017-10-18T04:41:18.810Z,101085.28
2017-10-18T04:43:21.318Z,101086.12
2017-10-18T04:45:23.752Z,101078.10
2017-10-18T04:47:26.199Z,101077.17
2017-10-18T04:49:28.730Z,101075.39
2017-10-18T04:51:31.165Z,101082.58
2017-10-18T04:53:33.626Z,101082.16
2017-10-18T04:55:36.134Z,101081.31
2017-10-18T04:57:38.611Z,101082.67
2017-10-18T04:59:41.044Z,101084.44
2017-10-18T05:01:43.524Z,101084.44
2017-10-18T05:03:46.235Z,101088.08
2017-10-18T05:05:48.679Z,101087.15
2017-10-18T05:07:51.149Z,101085.46
2017-10-18T05:09:53.613Z,101076.92
2017-10-18T05:11:56.111Z,101075.03
2017-10-18T05:13:58.626Z,101066.91
2017-10-18T05:16:01.061Z,101063.40
2017-10-18T05:18:03.495Z,101062.98
2017-10-18T05:20:05.989Z,101060.69
2017-10-18T05:22:08.741Z,101065.69
2017-10-18T05:24:11.232Z,101062.14
2017-10-18T05:26:13.694Z,101058.08
2017-10-18T05:28:16.134Z,101058.59
2017-10-18T05:30:18.740Z,101047.86
2017-10-18T05:32:21.197Z,101043.80
2017-10-18T05:34:23.680Z,101041.09
2017-10-18T05:36:26.220Z,101038.39
2017-10-18T05:38:28.680Z,101046.50
2017-10-18T05:40:31.133Z,101042.95
2017-10-18T05:42:33.587Z,101044.73
2017-10-18T05:44:36.157Z,101051.91
2017-10-18T05:46:38.627Z,101048.36
2017-10-18T05:48:41.090Z,101051.07
2017-10-18T05:50:43.738Z,101052.00
2017-10-18T05:52:47.064Z,101043.50
2017-10-18T05:54:49.516Z,101049.30
2017-10-18T05:56:51.981Z,101057.53
2017-10-18T05:58:54.444Z,101060.24
2017-10-18T06:00:56.894Z,101059.31
2017-10-18T06:02:59.410Z,101053.48
2017-10-18T06:05:01.880Z,101052.63
2017-10-18T06:07:04.344Z,101045.45
2017-10-18T06:09:06.836Z,101051.28
2017-10-18T06:11:09.285Z,101058.98
2017-10-18T06:13:11.848Z,101061.27
2017-10-18T06:15:14.323Z,101066.67
2017-10-18T06:17:16.766Z,101066.25
2017-10-18T06:19:19.234Z,101062.62
2017-10-18T06:21:21.703Z,101054.92
2017-10-18T06:23:24.138Z,101058.55
2017-10-18T06:25:26.614Z,101056.36
2017-10-18T06:27:29.171Z,101051.46
2017-10-18T06:29:31.717Z,101054.92
2017-10-18T06:31:34.700Z,101056.36
2017-10-18T06:33:37.184Z,101054.59
2017-10-18T06:35:39.629Z,101057.72
2017-10-18T06:37:42.214Z,101050.11
2017-10-18T06:39:44.808Z,101044.19
2017-10-18T06:41:47.276Z,101043.34
2017-10-18T06:43:49.713Z,101037.94
2017-10-18T06:45:52.177Z,101042.92
2017-10-18T06:47:54.611Z,101054.17
2017-10-18T06:49:57.049Z,101058.55
2017-10-18T06:51:59.637Z,101056.36
2017-10-18T06:54:02.097Z,101051.28
2017-10-18T06:56:04.572Z,101060.84
2017-10-18T06:58:07.038Z,101062.62
2017-10-18T07:00:09.495Z,101066.85
2017-10-18T07:02:11.988Z,101065.20
2017-10-18T07:04:14.547Z,101060.39
2017-10-18T07:06:17.005Z,101056.22
2017-10-18T07:08:19.444Z,101057.87
2017-10-18T07:10:21.912Z,101061.68
2017-10-18T07:12:24.398Z,101057.72
2017-10-18T07:14:26.856Z,101070.09
2017-10-18T07:16:29.344Z,101062.07
2017-10-18T07:18:31.805Z,101065.92
2017-10-18T07:20:34.255Z,101067.36
2017-10-18T07:22:36.752Z,101070.24
2017-10-18T07:24:39.206Z,101072.73
2017-10-18T07:26:41.656Z,101077.18
2017-10-18T07:28:44.181Z,101065.31
2017-10-18T07:30:46.760Z,101074.95
2017-10-18T07:32:49.335Z,101075.97
2017-10-18T07:34:51.808Z,101072.03
2017-10-18T07:36:54.274Z,101068.06
2017-10-18T07:38:56.823Z,101067.65
2017-10-18T07:40:59.285Z,101067.73
2017-10-18T07:43:01.733Z,101066.80
2017-10-18T07:45:04.203Z,101066.98
2017-10-18T07:47:06.669Z,101063.77
2017-10-18T07:49:09.216Z,101063.33
2017-10-18T07:51:11.675Z,101065.22
2017-10-18T07:53:14.145Z,101062.76
2017-10-18T07:55:16.596Z,101064.83
2017-10-18T07:57:19.054Z,101063.63
2017-10-18T07:59:21.554Z,101060.72
2017-10-18T08:01:23.992Z,101061.77
2017-10-18T08:03:26.446Z,101056.09
2017-10-18T08:05:28.954Z,101059.94
2017-10-18T08:07:31.406Z,101048.94
2017-10-18T08:09:33.871Z,101052.70
2017-10-18T08:11:36.369Z,101052.94
2017-10-18T08:13:38.832Z,101050.86
2017-10-18T08:15:41.283Z,101057.83
2017-10-18T08:17:43.756Z,101051.73
2017-10-18T08:19:47.120Z,101046.14
2017-10-18T08:21:49.583Z,101048.45
2017-10-18T08:23:52.055Z,101050.77
2017-10-18T08:25:54.522Z,101053.63
2017-10-18T08:27:56.993Z,101053.32
2017-10-18T08:29:59.508Z,101052.09
2017-10-18T08:32:01.958Z,101051.27
2017-10-18T08:34:04.518Z,101047.45
2017-10-18T08:36:06.988Z,101050.36
2017-10-18T08:38:09.481Z,101053.73
2017-10-18T08:40:11.936Z,101049.37
2017-10-18T08:42:14.420Z,101052.70
2017-10-18T08:44:16.876Z,101049.81
2017-10-18T08:46:19.530Z,101055.98
2017-10-18T08:48:22.060Z,101059.52
2017-10-18T08:50:24.534Z,101062.05
2017-10-18T08:52:27.034Z,101061.73
2017-10-18T08:54:29.527Z,101065.91
2017-10-18T08:56:31.989Z,101063.95
2017-10-18T08:58:34.455Z,101063.78
2017-10-18T09:00:36.945Z,101060.43
2017-10-18T09:02:39.394Z,101055.25
2017-10-18T09:04:41.832Z,101052.84
2017-10-18T09:06:44.313Z,101049.44
2017-10-18T09:08:46.753Z,101051.09
2017-10-18T09:10:49.215Z,101055.39
2017-10-18T09:12:51.691Z,101048.83
2017-10-18T09:14:54.128Z,101046.78
2017-10-18T09:16:56.609Z,101045.72
2017-10-18T09:18:59.096Z,101049.59
2017-10-18T09:21:01.539Z,101038.16
2017-10-18T09:23:04.009Z,101045.13
2017-10-18T09:25:06.485Z,101043.59
2017-10-18T09:27:08.932Z,101045.25
2017-10-18T09:29:11.386Z,101041.00
2017-10-18T09:31:13.911Z,101050.27
2017-10-18T09:33:16.378Z,101046.53
2017-10-18T09:35:18.958Z,101043.64
2017-10-18T09:37:21.564Z,101041.22
2017-10-18T09:39:24.018Z,101042.48
2017-10-18T09:41:26.472Z,101041.36
2017-10-18T09:43:29.021Z,101038.98
2017-10-18T09:45:31.482Z,101040.67
2017-10-18T09:47:33.927Z,101040.36
2017-10-18T09:49:36.454Z,101037.14
2017-10-18T09:51:38.888Z,101035.69
2017-10-18T09:53:41.335Z,101033.27
2017-10-18T09:55:43.809Z,101032.77
2017-10-18T09:57:46.248Z,101041.64
2017-10-18T09:59:48.764Z,101037.91
2017-10-18T10:01:51.216Z,101031.94
2017-10-18T10:03:53.657Z,101035.81
2017-10-18T10:05:56.111Z,101031.47
2017-10-18T10:07:58.582Z,101034.93
2017-10-18T10:10:01.057Z,101037.22
2017-10-18T10:12:03.551Z,101032.22
2017-10-18T10:14:06.024Z,101041.61
2017-10-18T10:16:08.544Z,101038.91
2017-10-18T10:18:11.010Z,101038.39
2017-10-18T10:20:13.505Z,101038.77
2017-10-18T10:22:15.961Z,101035.59
2017-10-18T10:24:18.455Z,101029.14
2017-10-18T10:26:21.244Z,101030.59
2017-10-18T10:28:23.802Z,101041.86
2017-10-18T10:30:26.276Z,101041.02
2017-10-18T10:32:28.810Z,101053.73
2017-10-18T10:34:31.281Z,101037.08
2017-10-18T10:36:33.924Z,101034.04
2017-10-18T10:38:36.396Z,101033.31
2017-10-18T10:40:38.872Z,101032.48
2017-10-18T10:42:41.348Z,101036.25
2017-10-18T10:44:43.925Z,101035.08
2017-10-18T10:46:46.416Z,101032.47
2017-10-18T10:48:48.875Z,101036.23
2017-10-18T10:50:51.341Z,101028.62
2017-10-18T10:52:53.804Z,101025.48
2017-10-18T10:54:56.253Z,101026.00
2017-10-18T10:56:58.792Z,101025.67
2017-10-18T10:59:01.240Z,101028.51
2017-10-18T11:01:03.693Z,101029.45
2017-10-18T11:03:06.173Z,101028.19
2017-10-18T11:05:08.662Z,101027.80
2017-10-18T11:07:11.146Z,101019.34
2017-10-18T11:09:13.642Z,101024.59
2017-10-18T11:11:16.110Z,101013.55
2017-10-18T11:13:18.579Z,101015.03
2017-10-18T11:15:21.082Z,101011.89
2017-10-18T11:17:23.598Z,101005.72
2017-10-18T11:19:26.056Z,101008.23
2017-10-18T11:21:28.520Z,101004.58
2017-10-18T11:23:31.097Z,101005.53
2017-10-18T11:25:33.643Z,101001.89
2017-10-18T11:27:36.199Z,100999.17
2017-10-18T11:29:38.640Z,100993.62
2017-10-18T11:31:41.104Z,100996.55
2017-10-18T11:33:43.580Z,100993.09
2017-10-18T11:35:46.034Z,100993.83
2017-10-18T11:37:48.573Z,100989.86
2017-10-18T11:39:51.050Z,100991.73
2017-10-18T11:41:53.554Z,100987.88
2017-10-18T11:43:56.008Z,100990.17
2017-10-18T11:45:58.548Z,100986.30
2017-10-18T11:48:01.054Z,100987.75
2017-10-18T11:50:03.508Z,100980.55
2017-10-18T11:52:05.989Z,100978.80
2017-10-18T11:54:08.441Z,100982.87
2017-10-18T11:56:10.881Z,100981.09
2017-10-18T11:58:13.354Z,100976.48
2017-10-18T12:00:15.805Z,100966.06
2017-10-18T12:02:18.262Z,100970.67
2017-10-18T12:04:20.736Z,100971.41
2017-10-18T12:06:23.285Z,100968.39
2017-10-18T12:08:25.743Z,100967.67
2017-10-18T12:10:28.205Z,100956.31
2017-10-18T12:12:30.663Z,100959.21
2017-10-18T12:14:33.180Z,100956.72
2017-10-18T12:16:35.828Z,100955.14
2017-10-18T12:18:38.273Z,100951.81
2017-10-18T12:20:40.712Z,100947.42
2017-10-18T12:22:43.223Z,100948.36
2017-10-18T12:24:45.792Z,100947.65
2017-10-18T12:26:48.236Z,100947.32
2017-10-18T12:28:50.732Z,100951.48
2017-10-18T12:30:53.242Z,100943.03
2017-10-18T12:32:55.683Z,100936.80
2017-10-18T12:34:58.321Z,100935.54
2017-10-18T12:37:00.789Z,100932.50
2017-10-18T12:39:03.501Z,100932.92
2017-10-18T12:41:06.004Z,100931.76
2017-10-18T12:43:08.444Z,100934.89
2017-10-18T12:45:10.919Z,100936.91
2017-10-18T12:47:13.434Z,100932.94
2017-10-18T12:49:15.882Z,100931.68
2017-10-18T12:51:18.360Z,100930.42
2017-10-18T12:53:20.854Z,100928.26
2017-10-18T12:55:23.304Z,100922.52
2017-10-18T12:57:25.757Z,100924.89
2017-10-18T12:59:28.232Z,100928.13
2017-10-18T13:01:30.686Z,100926.77
2017-10-18T13:03:33.129Z,100921.98
2017-10-18T13:05:35.593Z,100925.12
2017-10-18T13:07:38.068Z,100922.83
2017-10-18T13:09:40.614Z,100924.19
2017-10-18T13:11:43.105Z,100915.21
2017-10-18T13:13:45.595Z,100913.86
2017-10-18T13:15:48.057Z,100922.92
2017-10-18T13:17:50.564Z,100917.08
2017-10-18T13:19:53.037Z,100912.18
2017-10-18T13:21:55.563Z,100916.66
2017-10-18T13:23:58.043Z,100910.41
2017-10-18T13:26:00.607Z,100920.30
2017-10-18T13:28:03.047Z,100906.34
2017-10-18T13:30:05.600Z,100907.59
2017-10-18T13:32:09.056Z,100908.95
2017-10-18T13:34:11.562Z,100906.34
2017-10-18T13:36:14.133Z,100908.11
2017-10-18T13:38:16.584Z,100906.76
2017-10-18T13:40:19.137Z,100905.31
2017-10-18T13:42:21.698Z,100909.70
2017-10-18T13:44:24.277Z,100909.38
2017-10-18T13:46:26.724Z,100908.86
2017-10-18T13:48:29.191Z,100905.73
2017-10-18T13:50:31.691Z,100908.34
2017-10-18T13:52:34.133Z,100906.98
2017-10-18T13:54:36.614Z,100904.66
2017-10-18T13:56:40.495Z,100910.09
2017-10-18T13:58:45.092Z,100906.02
2017-10-18T14:00:48.388Z,100909.57
2017-10-18T14:02:50.830Z,100901.34
2017-10-18T14:04:54.561Z,100901.34
2017-10-18T14:06:57.112Z,100904.89
2017-10-18T14:08:59.548Z,100904.89
2017-10-18T14:11:01.980Z,100900.31
2017-10-18T14:13:04.451Z,100904.28
2017-10-18T14:15:06.929Z,100902.61
2017-10-18T14:17:09.473Z,100896.27
2017-10-18T14:19:11.941Z,100891.69
2017-10-18T14:21:14.395Z,100891.36
2017-10-18T14:23:16.846Z,100891.88
2017-10-18T14:25:19.344Z,100892.20
2017-10-18T14:27:21.807Z,100893.23
2017-10-18T14:29:24.248Z,100896.98
2017-10-18T14:31:26.717Z,100891.88
2017-10-18T14:33:29.166Z,100888.43
2017-10-18T14:35:31.620Z,100893.56
2017-10-18T14:37:34.174Z,100886.98
2017-10-18T14:39:36.625Z,100889.91
2017-10-18T14:41:39.093Z,100891.45
2017-10-18T14:43:41.585Z,100892.10
2017-10-18T14:45:44.054Z,100889.91
2017-10-18T14:47:46.524Z,100887.30
2017-10-18T14:49:49.093Z,100892.81
2017-10-18T14:51:51.547Z,100894.81
2017-10-18T14:53:54.049Z,100894.39
2017-10-18T14:55:56.521Z,100893.23
2017-10-18T14:57:59.177Z,100899.07
2017-10-18T15:00:01.634Z,100895.62
2017-10-18T15:02:04.106Z,100895.42
2017-10-18T15:04:06.589Z,100897.72
2017-10-18T15:06:09.053Z,100892.81
2017-10-18T15:08:11.596Z,100893.33
2017-10-18T15:10:14.036Z,100894.39
2017-10-18T15:12:16.472Z,100893.56
2017-10-18T15:14:18.940Z,100894.59
2017-10-18T15:16:21.381Z,100890.75
2017-10-18T15:18:23.844Z,100898.04
2017-10-18T15:20:26.315Z,100892.30
2017-10-18T15:22:28.760Z,100894.68
2017-10-18T15:24:31.319Z,100888.03
2017-10-18T15:26:33.790Z,100890.84
2017-10-18T15:28:36.249Z,100890.84
2017-10-18T15:30:38.737Z,100890.09
2017-10-18T15:32:41.210Z,100883.41
2017-10-18T15:34:43.649Z,100884.34
2017-10-18T15:36:46.132Z,100895.32
2017-10-18T15:38:48.709Z,100880.09
2017-10-18T15:40:51.273Z,100883.83
2017-10-18T15:42:53.928Z,100884.34
2017-10-18T15:44:56.406Z,100885.83
2017-10-18T15:46:58.880Z,100880.92
2017-10-18T15:49:02.351Z,100881.53
2017-10-18T15:51:04.835Z,100874.05
2017-10-18T15:53:07.273Z,100883.63
2017-10-18T15:55:09.735Z,100882.59
2017-10-18T15:57:12.214Z,100886.84
2017-10-18T15:59:14.665Z,100888.20
2017-10-18T16:01:17.117Z,100885.68
2017-10-18T16:03:19.822Z,100890.72
2017-10-18T16:05:22.285Z,100894.03
2017-10-18T16:07:24.737Z,100886.09
2017-10-18T16:09:27.278Z,100899.64
2017-10-18T16:11:29.733Z,100893.52
2017-10-18T16:13:32.212Z,100899.87
2017-10-18T16:15:34.686Z,100896.83
2017-10-18T16:17:37.132Z,100897.47
2017-10-18T16:19:39.596Z,100898.41
2017-10-18T16:21:42.076Z,100896.22
2017-10-18T16:23:44.525Z,100900.89
2017-10-18T16:25:46.969Z,100898.27
2017-10-18T16:27:49.497Z,100900.69
2017-10-18T16:29:51.937Z,100897.66
2017-10-18T16:31:54.373Z,100901.39
2017-10-18T16:33:56.839Z,100901.52
2017-10-18T16:35:59.387Z,100908.81
2017-10-18T16:38:01.857Z,100902.13
2017-10-18T16:40:04.475Z,100900.87
2017-10-18T16:42:06.931Z,100898.58
2017-10-18T16:44:09.437Z,100907.73
2017-10-18T16:46:11.939Z,100903.47
2017-10-18T16:48:14.419Z,100901.61
2017-10-18T16:50:16.886Z,100901.70
2017-10-18T16:52:19.352Z,100899.59
2017-10-18T16:54:21.833Z,100897.02
2017-10-18T16:56:24.287Z,100897.53
2017-10-18T16:58:26.765Z,100895.44
2017-10-18T17:00:29.210Z,100902.20
2017-10-18T17:02:31.681Z,100903.23
2017-10-18T17:04:34.154Z,100904.59
2017-10-18T17:06:36.600Z,100898.88
2017-10-18T17:08:39.150Z,100898.55
2017-10-18T17:10:41.668Z,100903.55
2017-10-18T17:12:44.120Z,100898.64
2017-10-18T17:14:46.564Z,100905.09
2017-10-18T17:16:49.120Z,100903.41
2017-10-18T17:18:51.598Z,100895.28
2017-10-18T17:20:54.042Z,100896.44
2017-10-18T17:22:56.520Z,100896.02
2017-10-18T17:24:58.985Z,100897.98
2017-10-18T17:27:01.445Z,100899.34
2017-10-18T17:29:03.912Z,100895.78
2017-10-18T17:31:06.370Z,100897.23
2017-10-18T17:33:08.804Z,100898.59
2017-10-18T17:35:11.263Z,100898.72
2017-10-18T17:37:13.713Z,100900.48
2017-10-18T17:39:16.228Z,100901.84
2017-10-18T17:41:18.742Z,100906.00
2017-10-18T17:43:21.210Z,100905.67
2017-10-18T17:45:23.745Z,100906.61
2017-10-18T17:47:26.220Z,100907.55
2017-10-18T17:49:28.670Z,100903.99
2017-10-18T17:51:31.104Z,100913.47
2017-10-18T17:53:33.576Z,100911.70
2017-10-18T17:55:36.027Z,100909.11
2017-10-18T17:57:38.500Z,100910.89
2017-10-18T17:59:40.990Z,100915.89
2017-10-18T18:01:43.463Z,100915.56
2017-10-18T18:03:45.909Z,100920.14
2017-10-18T18:05:48.381Z,100917.94
2017-10-18T18:07:50.821Z,100922.13
2017-10-18T18:09:53.278Z,100921.71
2017-10-18T18:11:55.809Z,100919.94
2017-10-18T18:13:58.248Z,100926.80
2017-10-18T18:16:00.698Z,100923.67
2017-10-18T18:18:03.237Z,100921.48
2017-10-18T18:20:05.681Z,100927.41
2017-10-18T18:22:08.125Z,100927.83
2017-10-18T18:24:10.616Z,100919.28
2017-10-18T18:26:13.074Z,100922.50
2017-10-18T18:28:15.554Z,100929.69
2017-10-18T18:30:18.013Z,100920.22
2017-10-18T18:32:20.465Z,100919.92
2017-10-18T18:34:22.905Z,100919.92
2017-10-18T18:36:25.382Z,100924.91
2017-10-18T18:38:27.813Z,100912.22
2017-10-18T18:40:30.286Z,100921.27
2017-10-18T18:42:32.808Z,100923.14
2017-10-18T18:44:35.407Z,100925.43
2017-10-18T18:46:39.834Z,100922.21
2017-10-18T18:48:42.675Z,100916.89
2017-10-18T18:50:45.153Z,100920.53
2017-10-18T18:52:47.597Z,100923.66
2017-10-18T18:54:50.113Z,100919.69
2017-10-18T18:56:52.552Z,100923.75
2017-10-18T18:58:55.012Z,100919.69
2017-10-18T19:00:57.518Z,100920.20
2017-10-18T19:02:59.965Z,100928.45
2017-10-18T19:05:02.481Z,100921.26
2017-10-18T19:07:05.052Z,100926.77
2017-10-18T19:09:07.509Z,100926.35
2017-10-18T19:11:09.996Z,100930.92
2017-10-18T19:13:12.456Z,100926.44
2017-10-18T19:15:14.893Z,100930.59
2017-10-18T19:17:17.346Z,100927.08
2017-10-18T19:19:19.801Z,100932.50
2017-10-18T19:21:22.304Z,100927.08
2017-10-18T19:23:24.776Z,100936.14
2017-10-18T19:25:27.234Z,100933.43
2017-10-18T19:27:29.741Z,100933.43
2017-10-18T19:29:32.213Z,100939.78
2017-10-18T19:31:34.686Z,100938.84
2017-10-18T19:33:37.121Z,100942.39
2017-10-18T19:35:39.556Z,100938.42
2017-10-18T19:37:42.104Z,100937.07
2017-10-18T19:39:44.574Z,100939.45
2017-10-18T19:41:47.007Z,100934.45
2017-10-18T19:43:49.482Z,100932.17
2017-10-18T19:45:51.944Z,100934.03
2017-10-18T19:47:54.760Z,100935.30
2017-10-18T19:49:57.338Z,100929.04
2017-10-18T19:51:59.814Z,100934.45
2017-10-18T19:54:02.260Z,100937.25
2017-10-18T19:56:04.732Z,100934.97
2017-10-18T19:58:07.191Z,100941.83
2017-10-18T20:00:09.638Z,100940.80
2017-10-18T20:02:12.095Z,100941.32
2017-10-18T20:04:14.541Z,100942.77
2017-10-18T20:06:17.094Z,100944.66
2017-10-18T20:08:19.569Z,100945.09
2017-10-18T20:10:22.036Z,100943.31
2017-10-18T20:12:24.505Z,100950.08
2017-10-18T20:14:26.975Z,100949.23
2017-10-18T20:16:29.411Z,100943.50
2017-10-18T20:18:31.854Z,100949.23
2017-10-18T20:20:34.324Z,100939.44
2017-10-18T20:22:36.767Z,100943.08
2017-10-18T20:24:39.205Z,100936.31
2017-10-18T20:26:41.700Z,100933.18
2017-10-18T20:28:44.149Z,100926.41
2017-10-18T20:30:46.589Z,100931.83
2017-10-18T20:32:49.056Z,100933.59
2017-10-18T20:34:51.577Z,100930.98
2017-10-18T20:36:54.029Z,100939.23
2017-10-18T20:38:56.499Z,100934.53
2017-10-18T20:40:58.946Z,100932.89
2017-10-18T20:43:01.392Z,100938.30
2017-10-18T20:45:03.855Z,100937.04
2017-10-18T20:47:06.313Z,100941.52
2017-10-18T20:49:08.863Z,100943.39
2017-10-18T20:51:11.321Z,100940.26
2017-10-18T20:53:13.825Z,100942.13
2017-10-18T20:55:16.286Z,100940.35
2017-10-18T20:57:18.859Z,100943.05
2017-10-18T20:59:21.312Z,100946.09
2017-10-18T21:01:23.766Z,100945.77
2017-10-18T21:03:26.256Z,100948.98
2017-10-18T21:05:28.694Z,100945.86
2017-10-18T21:07:31.130Z,100950.85
2017-10-18T21:09:33.637Z,100945.44
2017-10-18T21:11:36.080Z,100947.34
2017-10-18T21:13:38.599Z,100942.73
2017-10-18T21:15:41.070Z,100947.34
2017-10-18T21:17:43.514Z,100937.02
2017-10-18T21:19:45.957Z,100940.66
2017-10-18T21:21:48.424Z,100932.95
2017-10-18T21:23:50.855Z,100939.82
2017-10-18T21:25:53.306Z,100935.01
2017-10-18T21:27:55.772Z,100928.25
2017-10-18T21:29:58.227Z,100936.36
2017-10-18T21:32:00.703Z,100940.23
2017-10-18T21:34:03.169Z,100930.95
2017-10-18T21:36:05.617Z,100936.91
2017-10-18T21:38:08.056Z,100934.59
2017-10-18T21:40:10.531Z,100932.84
2017-10-18T21:42:13.014Z,100933.36
2017-10-18T21:44:15.474Z,100933.78
2017-10-18T21:46:17.942Z,100938.36
2017-10-18T21:48:20.415Z,100935.65
2017-10-18T21:50:22.981Z,100938.87
2017-10-18T21:52:25.457Z,100948.77
2017-10-18T21:54:27.925Z,100943.45
2017-10-18T21:56:30.364Z,100944.38
2017-10-18T21:58:32.828Z,100941.67
2017-10-18T22:00:35.288Z,100946.75
2017-10-18T22:02:37.726Z,100946.37
2017-10-18T22:04:40.198Z,100949.16
2017-10-18T22:06:42.732Z,100953.73
2017-10-18T22:08:45.181Z,100953.31
2017-10-18T22:10:47.821Z,100953.73
2017-10-18T22:12:50.270Z,100951.55
2017-10-18T22:14:52.707Z,100952.06
2017-10-18T22:16:55.167Z,100953.41
2017-10-18T22:18:57.648Z,100949.86
2017-10-18T22:21:00.091Z,100954.05
2017-10-18T22:23:02.598Z,100950.41
2017-10-18T22:25:05.044Z,100951.77
2017-10-18T22:27:07.492Z,100945.00
2017-10-18T22:29:10.015Z,100943.31
2017-10-18T22:31:12.484Z,100949.56
2017-10-18T22:33:14.925Z,100946.86
2017-10-18T22:35:17.389Z,100940.19
2017-10-18T22:37:19.835Z,100945.17
2017-10-18T22:39:22.370Z,100940.28
2017-10-18T22:41:24.952Z,100949.33
2017-10-18T22:43:27.405Z,100944.34
2017-10-18T22:45:29.844Z,100949.75
2017-10-18T22:47:32.323Z,100947.05
2017-10-18T22:49:34.773Z,100944.34
2017-10-18T22:51:37.468Z,100939.44
2017-10-18T22:53:39.928Z,100946.72
2017-10-18T22:55:42.419Z,100939.56
2017-10-18T22:57:44.908Z,100940.91
2017-10-18T22:59:47.391Z,100936.44
2017-10-18T23:01:49.899Z,100936.53
2017-10-18T23:03:52.345Z,100941.01
2017-10-18T23:05:54.839Z,100946.52
2017-10-18T23:07:57.362Z,100947.02
2017-10-18T23:09:59.829Z,100946.09
2017-10-18T23:12:02.301Z,100948.05
2017-10-18T23:14:04.746Z,100940.35
2017-10-18T23:16:07.192Z,100945.25
2017-10-18T23:18:09.743Z,100953.59
2017-10-18T23:20:12.330Z,100946.31